sensor_id;sensor_type;location;lat;lon;timestamp;temperature;humidity
17348;DHT22;8791;50.876;4.342;2022-11-23T00:01:53;9.80;99.90
17348;DHT22;8791;50.876;4.342;2022-11-23T00:04:20;9.70;99.90
17348;DHT22;8791;50.876;4.342;2022-11-23T00:06:50;9.50;99.90
17348;DHT22;8791;50.876;4.342;2022-11-23T00:09:17;9.40;99.90
17348;DHT22;8791;50.876;4.342;2022-11-23T00:11:44;9.30;99.90
17348;DHT22;8791;50.876;4.342;2022-11-23T00:14:11;9.40;99.90
17348;DHT22;8791;50.876;4.342;2022-11-23T00:16:38;9.40;99.90
17348;DHT22;8791;50.876;4.342;2022-11-23T00:19:05;9.40;99.90
17348;DHT22;8791;50.876;4.342;2022-11-23T00:21:32;9.30;99.90
17348;DHT22;8791;50.876;4.342;2022-11-23T00:24:00;9.40;99.90
17348;DHT22;8791;50.876;4.342;2022-11-23T00:26:27;9.30;99.90
17348;DHT22;8791;50.876;4.342;2022-11-23T00:28:54;9.30;99.90
17348;DHT22;8791;50.876;4.342;2022-11-23T00:31:21;9.50;99.90
17348;DHT22;8791;50.876;4.342;2022-11-23T00:33:50;9.50;99.90
17348;DHT22;8791;50.876;4.342;2022-11-23T00:36:18;9.50;99.90
17348;DHT22;8791;50.876;4.342;2022-11-23T00:38:46;9.40;99.90
17348;DHT22;8791;50.876;4.342;2022-11-23T00:41:16;9.30;99.90
17348;DHT22;8791;50.876;4.342;2022-11-23T00:43:44;9.30;99.90
17348;DHT22;8791;50.876;4.342;2022-11-23T00:46:12;9.30;99.90
17348;DHT22;8791;50.876;4.342;2022-11-23T00:48:39;9.30;99.90
17348;DHT22;8791;50.876;4.342;2022-11-23T00:51:08;9.30;99.90
17348;DHT22;8791;50.876;4.342;2022-11-23T00:53:35;9.30;99.90
17348;DHT22;8791;50.876;4.342;2022-11-23T00:56:02;9.30;99.90
17348;DHT22;8791;50.876;4.342;2022-11-23T00:58:31;9.30;99.90
17348;DHT22;8791;50.876;4.342;2022-11-23T01:01:03;9.40;99.90
17348;DHT22;8791;50.876;4.342;2022-11-23T01:03:30;9.50;99.90
17348;DHT22;8791;50.876;4.342;2022-11-23T01:06:04;9.50;99.90
17348;DHT22;8791;50.876;4.342;2022-11-23T01:08:31;9.50;99.90
17348;DHT22;8791;50.876;4.342;2022-11-23T01:10:59;9.50;99.90
17348;DHT22;8791;50.876;4.342;2022-11-23T01:13:27;9.40;99.90
17348;DHT22;8791;50.876;4.342;2022-11-23T01:15:55;9.30;99.90
17348;DHT22;8791;50.876;4.342;2022-11-23T01:18:22;9.30;99.90
17348;DHT22;8791;50.876;4.342;2022-11-23T01:20:49;9.30;99.90
17348;DHT22;8791;50.876;4.342;2022-11-23T01:23:16;9.30;99.90
17348;DHT22;8791;50.876;4.342;2022-11-23T01:25:43;9.30;99.90
17348;DHT22;8791;50.876;4.342;2022-11-23T01:28:10;9.30;99.90
17348;DHT22;8791;50.876;4.342;2022-11-23T01:30:37;9.30;99.90
17348;DHT22;8791;50.876;4.342;2022-11-23T01:33:05;9.40;99.90
17348;DHT22;8791;50.876;4.342;2022-11-23T01:35:32;9.50;99.90
17348;DHT22;8791;50.876;4.342;2022-11-23T01:37:58;9.50;99.90
17348;DHT22;8791;50.876;4.342;2022-11-23T01:40:25;9.50;99.90
17348;DHT22;8791;50.876;4.342;2022-11-23T01:42:54;9.50;99.90
17348;DHT22;8791;50.876;4.342;2022-11-23T01:45:39;9.50;99.90
17348;DHT22;8791;50.876;4.342;2022-11-23T01:48:13;9.50;99.90
17348;DHT22;8791;50.876;4.342;2022-11-23T01:50:41;9.50;99.90
17348;DHT22;8791;50.876;4.342;2022-11-23T01:53:08;9.50;99.90
17348;DHT22;8791;50.876;4.342;2022-11-23T01:55:35;9.50;99.90
17348;DHT22;8791;50.876;4.342;2022-11-23T01:58:03;9.60;99.90
17348;DHT22;8791;50.876;4.342;2022-11-23T02:00:32;9.50;99.90
17348;DHT22;8791;50.876;4.342;2022-11-23T02:03:00;9.60;99.90
17348;DHT22;8791;50.876;4.342;2022-11-23T02:05:31;9.60;99.90
17348;DHT22;8791;50.876;4.342;2022-11-23T02:08:00;9.60;99.90
17348;DHT22;8791;50.876;4.342;2022-11-23T02:10:29;9.70;99.90
17348;DHT22;8791;50.876;4.342;2022-11-23T02:13:00;9.70;99.90
17348;DHT22;8791;50.876;4.342;2022-11-23T02:15:27;9.50;99.90
17348;DHT22;8791;50.876;4.342;2022-11-23T02:17:55;9.50;99.90
17348;DHT22;8791;50.876;4.342;2022-11-23T02:20:22;9.50;99.90
17348;DHT22;8791;50.876;4.342;2022-11-23T02:22:58;9.40;99.90
17348;DHT22;8791;50.876;4.342;2022-11-23T02:25:48;9.40;99.90
17348;DHT22;8791;50.876;4.342;2022-11-23T02:28:18;9.40;99.90
17348;DHT22;8791;50.876;4.342;2022-11-23T02:30:49;9.40;99.90
17348;DHT22;8791;50.876;4.342;2022-11-23T02:33:16;9.30;99.90
17348;DHT22;8791;50.876;4.342;2022-11-23T02:35:48;9.40;99.90
17348;DHT22;8791;50.876;4.342;2022-11-23T02:38:16;9.40;99.90
17348;DHT22;8791;50.876;4.342;2022-11-23T02:40:44;9.40;99.90
17348;DHT22;8791;50.876;4.342;2022-11-23T02:43:12;9.40;99.90
17348;DHT22;8791;50.876;4.342;2022-11-23T02:45:44;9.40;99.90
17348;DHT22;8791;50.876;4.342;2022-11-23T02:48:11;9.50;99.90
17348;DHT22;8791;50.876;4.342;2022-11-23T02:50:38;9.40;99.90
17348;DHT22;8791;50.876;4.342;2022-11-23T02:53:05;9.30;99.90
17348;DHT22;8791;50.876;4.342;2022-11-23T02:55:32;9.30;99.90
17348;DHT22;8791;50.876;4.342;2022-11-23T02:57:59;9.40;99.90
17348;DHT22;8791;50.876;4.342;2022-11-23T03:00:27;9.40;99.90
17348;DHT22;8791;50.876;4.342;2022-11-23T03:02:54;9.30;99.90
17348;DHT22;8791;50.876;4.342;2022-11-23T03:05:20;9.30;99.90
17348;DHT22;8791;50.876;4.342;2022-11-23T03:07:47;9.40;99.90
17348;DHT22;8791;50.876;4.342;2022-11-23T03:10:14;9.50;99.90
17348;DHT22;8791;50.876;4.342;2022-11-23T03:12:41;9.40;99.90
17348;DHT22;8791;50.876;4.342;2022-11-23T03:15:09;9.40;99.90
17348;DHT22;8791;50.876;4.342;2022-11-23T03:17:37;9.40;99.90
17348;DHT22;8791;50.876;4.342;2022-11-23T03:20:05;9.40;99.90
17348;DHT22;8791;50.876;4.342;2022-11-23T03:22:33;9.30;99.90
17348;DHT22;8791;50.876;4.342;2022-11-23T03:24:59;9.30;99.90
17348;DHT22;8791;50.876;4.342;2022-11-23T03:27:26;9.30;99.90
17348;DHT22;8791;50.876;4.342;2022-11-23T03:29:53;9.40;99.90
17348;DHT22;8791;50.876;4.342;2022-11-23T03:32:20;9.40;99.90
17348;DHT22;8791;50.876;4.342;2022-11-23T03:34:48;9.50;99.90
17348;DHT22;8791;50.876;4.342;2022-11-23T03:37:15;9.50;99.90
17348;DHT22;8791;50.876;4.342;2022-11-23T03:39:42;9.50;99.90
17348;DHT22;8791;50.876;4.342;2022-11-23T03:42:09;9.50;99.90
17348;DHT22;8791;50.876;4.342;2022-11-23T03:44:35;9.40;99.90
17348;DHT22;8791;50.876;4.342;2022-11-23T03:47:02;9.30;99.90
17348;DHT22;8791;50.876;4.342;2022-11-23T03:49:29;9.20;99.90
17348;DHT22;8791;50.876;4.342;2022-11-23T03:51:57;9.30;99.90
17348;DHT22;8791;50.876;4.342;2022-11-23T03:54:24;9.30;99.90
17348;DHT22;8791;50.876;4.342;2022-11-23T03:56:51;9.30;99.90
17348;DHT22;8791;50.876;4.342;2022-11-23T03:59:17;9.30;99.90
17348;DHT22;8791;50.876;4.342;2022-11-23T04:01:44;9.20;99.90
17348;DHT22;8791;50.876;4.342;2022-11-23T04:04:11;9.10;99.90
17348;DHT22;8791;50.876;4.342;2022-11-23T04:06:38;9.00;99.90
17348;DHT22;8791;50.876;4.342;2022-11-23T04:09:06;9.00;99.90
17348;DHT22;8791;50.876;4.342;2022-11-23T04:11:33;8.90;99.90
17348;DHT22;8791;50.876;4.342;2022-11-23T04:13:59;8.90;99.90
17348;DHT22;8791;50.876;4.342;2022-11-23T04:16:26;8.90;99.90
17348;DHT22;8791;50.876;4.342;2022-11-23T04:18:53;8.90;99.90
17348;DHT22;8791;50.876;4.342;2022-11-23T04:21:20;8.90;99.90
17348;DHT22;8791;50.876;4.342;2022-11-23T04:23:46;9.00;99.90
17348;DHT22;8791;50.876;4.342;2022-11-23T04:26:15;9.00;99.90
17348;DHT22;8791;50.876;4.342;2022-11-23T04:28:41;9.20;99.90
17348;DHT22;8791;50.876;4.342;2022-11-23T04:31:08;9.10;99.90
17348;DHT22;8791;50.876;4.342;2022-11-23T04:33:35;9.10;99.90
17348;DHT22;8791;50.876;4.342;2022-11-23T04:36:02;9.00;99.90
17348;DHT22;8791;50.876;4.342;2022-11-23T04:38:29;9.00;99.90
17348;DHT22;8791;50.876;4.342;2022-11-23T04:40:56;9.00;99.90
17348;DHT22;8791;50.876;4.342;2022-11-23T04:43:24;9.10;99.90
17348;DHT22;8791;50.876;4.342;2022-11-23T04:45:51;9.10;99.90
17348;DHT22;8791;50.876;4.342;2022-11-23T04:48:18;9.20;99.90
17348;DHT22;8791;50.876;4.342;2022-11-23T04:50:45;9.10;99.90
17348;DHT22;8791;50.876;4.342;2022-11-23T04:53:11;9.10;99.90
17348;DHT22;8791;50.876;4.342;2022-11-23T04:55:38;9.10;99.90
17348;DHT22;8791;50.876;4.342;2022-11-23T04:58:05;9.10;99.90
17348;DHT22;8791;50.876;4.342;2022-11-23T05:00:34;9.00;99.90
17348;DHT22;8791;50.876;4.342;2022-11-23T05:03:00;9.00;99.90
17348;DHT22;8791;50.876;4.342;2022-11-23T05:05:27;8.90;99.90
17348;DHT22;8791;50.876;4.342;2022-11-23T05:07:55;8.90;99.90
17348;DHT22;8791;50.876;4.342;2022-11-23T05:10:22;8.80;99.90
17348;DHT22;8791;50.876;4.342;2022-11-23T05:12:48;8.70;99.90
17348;DHT22;8791;50.876;4.342;2022-11-23T05:15:15;8.70;99.90
17348;DHT22;8791;50.876;4.342;2022-11-23T05:17:44;8.70;99.90
17348;DHT22;8791;50.876;4.342;2022-11-23T05:20:11;8.80;99.90
17348;DHT22;8791;50.876;4.342;2022-11-23T05:22:37;8.80;99.90
17348;DHT22;8791;50.876;4.342;2022-11-23T05:25:05;8.70;99.90
17348;DHT22;8791;50.876;4.342;2022-11-23T05:27:32;8.60;99.90
17348;DHT22;8791;50.876;4.342;2022-11-23T05:29:59;8.50;99.90
17348;DHT22;8791;50.876;4.342;2022-11-23T05:32:26;8.50;99.90
17348;DHT22;8791;50.876;4.342;2022-11-23T05:34:54;8.30;99.90
17348;DHT22;8791;50.876;4.342;2022-11-23T05:37:21;8.30;99.90
17348;DHT22;8791;50.876;4.342;2022-11-23T05:39:48;8.20;99.90
17348;DHT22;8791;50.876;4.342;2022-11-23T05:42:15;8.20;99.90
17348;DHT22;8791;50.876;4.342;2022-11-23T05:44:42;8.20;99.90
17348;DHT22;8791;50.876;4.342;2022-11-23T05:47:08;8.10;99.90
17348;DHT22;8791;50.876;4.342;2022-11-23T05:49:35;8.20;99.90
17348;DHT22;8791;50.876;4.342;2022-11-23T05:52:03;8.20;99.90
17348;DHT22;8791;50.876;4.342;2022-11-23T05:54:30;8.10;99.90
17348;DHT22;8791;50.876;4.342;2022-11-23T05:56:57;8.10;99.90
17348;DHT22;8791;50.876;4.342;2022-11-23T05:59:24;8.10;99.90
17348;DHT22;8791;50.876;4.342;2022-11-23T06:01:51;8.00;99.90
17348;DHT22;8791;50.876;4.342;2022-11-23T06:04:17;8.00;99.90
17348;DHT22;8791;50.876;4.342;2022-11-23T06:06:44;8.00;99.90
17348;DHT22;8791;50.876;4.342;2022-11-23T06:09:12;8.00;99.90
17348;DHT22;8791;50.876;4.342;2022-11-23T06:11:39;8.00;99.90
17348;DHT22;8791;50.876;4.342;2022-11-23T06:14:06;8.00;99.90
17348;DHT22;8791;50.876;4.342;2022-11-23T06:16:33;8.00;99.90
17348;DHT22;8791;50.876;4.342;2022-11-23T06:19:00;8.00;99.90
17348;DHT22;8791;50.876;4.342;2022-11-23T06:21:26;8.00;99.90
17348;DHT22;8791;50.876;4.342;2022-11-23T06:23:53;8.00;99.90
17348;DHT22;8791;50.876;4.342;2022-11-23T06:26:21;8.00;99.90
17348;DHT22;8791;50.876;4.342;2022-11-23T06:28:48;8.10;99.90
17348;DHT22;8791;50.876;4.342;2022-11-23T06:31:15;8.20;99.90
17348;DHT22;8791;50.876;4.342;2022-11-23T06:33:42;7.90;99.90
17348;DHT22;8791;50.876;4.342;2022-11-23T06:36:09;7.90;99.90
17348;DHT22;8791;50.876;4.342;2022-11-23T06:38:37;7.90;99.90
17348;DHT22;8791;50.876;4.342;2022-11-23T06:41:03;7.90;99.90
17348;DHT22;8791;50.876;4.342;2022-11-23T06:43:32;8.10;99.90
17348;DHT22;8791;50.876;4.342;2022-11-23T06:46:02;8.10;99.90
17348;DHT22;8791;50.876;4.342;2022-11-23T06:48:30;8.00;99.90
17348;DHT22;8791;50.876;4.342;2022-11-23T06:50:58;7.90;99.90
17348;DHT22;8791;50.876;4.342;2022-11-23T06:53:25;7.90;99.90
17348;DHT22;8791;50.876;4.342;2022-11-23T06:55:56;7.90;99.90
17348;DHT22;8791;50.876;4.342;2022-11-23T06:58:23;7.90;99.90
17348;DHT22;8791;50.876;4.342;2022-11-23T07:00:51;7.80;99.90
17348;DHT22;8791;50.876;4.342;2022-11-23T07:03:20;7.70;99.90
17348;DHT22;8791;50.876;4.342;2022-11-23T07:05:47;7.80;99.90
17348;DHT22;8791;50.876;4.342;2022-11-23T07:08:14;7.80;99.90
17348;DHT22;8791;50.876;4.342;2022-11-23T07:10:41;7.60;99.90
17348;DHT22;8791;50.876;4.342;2022-11-23T07:13:09;7.40;99.90
17348;DHT22;8791;50.876;4.342;2022-11-23T07:15:36;7.50;99.90
17348;DHT22;8791;50.876;4.342;2022-11-23T07:18:05;7.40;99.90
17348;DHT22;8791;50.876;4.342;2022-11-23T07:20:33;7.40;99.90
17348;DHT22;8791;50.876;4.342;2022-11-23T07:23:00;7.40;99.90
17348;DHT22;8791;50.876;4.342;2022-11-23T07:25:28;7.40;99.90
17348;DHT22;8791;50.876;4.342;2022-11-23T07:27:55;7.40;99.90
17348;DHT22;8791;50.876;4.342;2022-11-23T07:30:22;7.40;99.90
17348;DHT22;8791;50.876;4.342;2022-11-23T07:32:49;7.40;99.90
17348;DHT22;8791;50.876;4.342;2022-11-23T07:35:18;7.30;99.90
17348;DHT22;8791;50.876;4.342;2022-11-23T07:37:44;7.40;99.90
17348;DHT22;8791;50.876;4.342;2022-11-23T07:40:12;7.30;99.90
17348;DHT22;8791;50.876;4.342;2022-11-23T07:42:39;7.30;99.90
17348;DHT22;8791;50.876;4.342;2022-11-23T07:45:07;7.30;99.90
17348;DHT22;8791;50.876;4.342;2022-11-23T07:47:34;7.30;99.90
17348;DHT22;8791;50.876;4.342;2022-11-23T07:50:01;7.30;99.90
17348;DHT22;8791;50.876;4.342;2022-11-23T07:52:29;7.30;99.90
17348;DHT22;8791;50.876;4.342;2022-11-23T07:54:56;7.30;99.90
17348;DHT22;8791;50.876;4.342;2022-11-23T07:57:24;7.20;99.90
17348;DHT22;8791;50.876;4.342;2022-11-23T07:59:51;7.10;99.90
17348;DHT22;8791;50.876;4.342;2022-11-23T08:02:18;7.10;99.90
17348;DHT22;8791;50.876;4.342;2022-11-23T08:04:45;7.10;99.90
17348;DHT22;8791;50.876;4.342;2022-11-23T08:07:12;7.20;99.90
17348;DHT22;8791;50.876;4.342;2022-11-23T08:09:41;7.20;99.90
17348;DHT22;8791;50.876;4.342;2022-11-23T08:12:08;7.30;99.90
17348;DHT22;8791;50.876;4.342;2022-11-23T08:14:35;7.20;99.90
17348;DHT22;8791;50.876;4.342;2022-11-23T08:17:01;7.40;99.90
17348;DHT22;8791;50.876;4.342;2022-11-23T08:19:29;7.40;99.90
17348;DHT22;8791;50.876;4.342;2022-11-23T08:21:56;7.50;99.90
17348;DHT22;8791;50.876;4.342;2022-11-23T08:24:22;7.50;99.90
17348;DHT22;8791;50.876;4.342;2022-11-23T08:26:50;7.50;99.90
17348;DHT22;8791;50.876;4.342;2022-11-23T08:29:17;7.60;99.90
17348;DHT22;8791;50.876;4.342;2022-11-23T08:31:45;7.70;99.90
17348;DHT22;8791;50.876;4.342;2022-11-23T08:34:12;7.70;99.90
17348;DHT22;8791;50.876;4.342;2022-11-23T08:36:39;7.70;99.90
17348;DHT22;8791;50.876;4.342;2022-11-23T08:39:06;7.70;99.90
17348;DHT22;8791;50.876;4.342;2022-11-23T08:41:35;7.80;99.90
17348;DHT22;8791;50.876;4.342;2022-11-23T08:44:04;8.10;99.90
17348;DHT22;8791;50.876;4.342;2022-11-23T08:46:32;8.10;99.90
17348;DHT22;8791;50.876;4.342;2022-11-23T08:48:59;8.00;99.90
17348;DHT22;8791;50.876;4.342;2022-11-23T08:51:26;8.00;99.90
17348;DHT22;8791;50.876;4.342;2022-11-23T08:53:53;8.20;99.90
17348;DHT22;8791;50.876;4.342;2022-11-23T08:56:20;8.20;99.90
17348;DHT22;8791;50.876;4.342;2022-11-23T08:58:47;8.40;99.90
17348;DHT22;8791;50.876;4.342;2022-11-23T09:01:16;8.20;99.90
17348;DHT22;8791;50.876;4.342;2022-11-23T09:03:44;8.00;99.90
17348;DHT22;8791;50.876;4.342;2022-11-23T09:06:11;8.20;99.90
17348;DHT22;8791;50.876;4.342;2022-11-23T09:08:38;8.30;99.90
17348;DHT22;8791;50.876;4.342;2022-11-23T09:11:06;8.10;99.90
17348;DHT22;8791;50.876;4.342;2022-11-23T09:13:34;8.20;99.90
17348;DHT22;8791;50.876;4.342;2022-11-23T09:16:03;8.20;99.90
17348;DHT22;8791;50.876;4.342;2022-11-23T09:18:32;8.20;99.90
17348;DHT22;8791;50.876;4.342;2022-11-23T09:21:02;8.20;99.90
17348;DHT22;8791;50.876;4.342;2022-11-23T09:23:29;8.20;99.90
17348;DHT22;8791;50.876;4.342;2022-11-23T09:25:57;8.30;99.90
17348;DHT22;8791;50.876;4.342;2022-11-23T09:28:24;8.40;99.90
17348;DHT22;8791;50.876;4.342;2022-11-23T09:30:52;8.40;99.90
17348;DHT22;8791;50.876;4.342;2022-11-23T09:33:19;8.40;99.90
17348;DHT22;8791;50.876;4.342;2022-11-23T09:35:54;8.40;99.90
17348;DHT22;8791;50.876;4.342;2022-11-23T09:38:21;8.40;99.90
17348;DHT22;8791;50.876;4.342;2022-11-23T09:40:55;8.40;99.90
17348;DHT22;8791;50.876;4.342;2022-11-23T09:43:38;8.40;99.90
17348;DHT22;8791;50.876;4.342;2022-11-23T09:46:12;8.40;99.90
17348;DHT22;8791;50.876;4.342;2022-11-23T09:48:56;8.50;99.90
17348;DHT22;8791;50.876;4.342;2022-11-23T09:51:29;8.50;99.90
17348;DHT22;8791;50.876;4.342;2022-11-23T09:53:59;8.60;99.90
17348;DHT22;8791;50.876;4.342;2022-11-23T09:56:31;8.90;99.90
17348;DHT22;8791;50.876;4.342;2022-11-23T09:59:00;9.00;99.90
17348;DHT22;8791;50.876;4.342;2022-11-23T10:01:28;9.00;99.90
17348;DHT22;8791;50.876;4.342;2022-11-23T10:03:56;8.90;99.90
17348;DHT22;8791;50.876;4.342;2022-11-23T10:06:24;8.90;99.90
17348;DHT22;8791;50.876;4.342;2022-11-23T10:09:13;8.90;99.90
17348;DHT22;8791;50.876;4.342;2022-11-23T10:11:57;8.80;99.90
17348;DHT22;8791;50.876;4.342;2022-11-23T10:14:46;9.00;99.90
17348;DHT22;8791;50.876;4.342;2022-11-23T10:17:23;9.00;99.90
17348;DHT22;8791;50.876;4.342;2022-11-23T10:20:02;8.90;99.90
17348;DHT22;8791;50.876;4.342;2022-11-23T10:22:38;9.00;99.90
17348;DHT22;8791;50.876;4.342;2022-11-23T10:25:14;9.10;99.90
17348;DHT22;8791;50.876;4.342;2022-11-23T10:27:42;9.20;99.90
17348;DHT22;8791;50.876;4.342;2022-11-23T10:30:11;9.20;99.90
17348;DHT22;8791;50.876;4.342;2022-11-23T10:32:44;9.30;99.90
17348;DHT22;8791;50.876;4.342;2022-11-23T10:35:13;9.20;99.90
17348;DHT22;8791;50.876;4.342;2022-11-23T10:37:41;9.20;99.90
17348;DHT22;8791;50.876;4.342;2022-11-23T10:40:15;9.30;99.90
17348;DHT22;8791;50.876;4.342;2022-11-23T10:42:45;9.40;99.90
17348;DHT22;8791;50.876;4.342;2022-11-23T10:45:18;9.30;99.90
17348;DHT22;8791;50.876;4.342;2022-11-23T10:47:50;9.30;99.90
17348;DHT22;8791;50.876;4.342;2022-11-23T10:50:22;9.30;99.90
17348;DHT22;8791;50.876;4.342;2022-11-23T10:52:52;9.30;99.90
17348;DHT22;8791;50.876;4.342;2022-11-23T10:55:25;9.20;99.90
17348;DHT22;8791;50.876;4.342;2022-11-23T10:57:53;9.20;99.90
17348;DHT22;8791;50.876;4.342;2022-11-23T11:00:22;9.30;99.90
17348;DHT22;8791;50.876;4.342;2022-11-23T11:02:50;9.40;99.90
17348;DHT22;8791;50.876;4.342;2022-11-23T11:05:28;9.50;99.90
17348;DHT22;8791;50.876;4.342;2022-11-23T11:07:58;9.70;99.90
17348;DHT22;8791;50.876;4.342;2022-11-23T11:10:39;9.60;99.90
17348;DHT22;8791;50.876;4.342;2022-11-23T11:13:22;9.50;99.90
17348;DHT22;8791;50.876;4.342;2022-11-23T11:15:54;9.80;99.90
17348;DHT22;8791;50.876;4.342;2022-11-23T11:18:22;9.90;99.90
17348;DHT22;8791;50.876;4.342;2022-11-23T11:20:56;9.90;99.90
17348;DHT22;8791;50.876;4.342;2022-11-23T11:23:24;10.00;99.90
17348;DHT22;8791;50.876;4.342;2022-11-23T11:26:03;10.20;99.90
17348;DHT22;8791;50.876;4.342;2022-11-23T11:28:35;10.30;99.90
17348;DHT22;8791;50.876;4.342;2022-11-23T11:31:19;10.10;99.90
17348;DHT22;8791;50.876;4.342;2022-11-23T11:33:55;10.20;99.90
17348;DHT22;8791;50.876;4.342;2022-11-23T11:36:23;10.30;99.90
17348;DHT22;8791;50.876;4.342;2022-11-23T11:38:52;10.20;99.90
17348;DHT22;8791;50.876;4.342;2022-11-23T11:41:23;10.20;99.90
17348;DHT22;8791;50.876;4.342;2022-11-23T11:43:53;10.40;99.90
17348;DHT22;8791;50.876;4.342;2022-11-23T11:46:24;10.60;99.90
17348;DHT22;8791;50.876;4.342;2022-11-23T11:48:59;10.60;99.90
17348;DHT22;8791;50.876;4.342;2022-11-23T11:51:32;10.50;99.90
17348;DHT22;8791;50.876;4.342;2022-11-23T11:54:04;10.70;99.90
17348;DHT22;8791;50.876;4.342;2022-11-23T11:56:37;10.80;99.90
17348;DHT22;8791;50.876;4.342;2022-11-23T11:59:12;10.60;99.90
17348;DHT22;8791;50.876;4.342;2022-11-23T12:01:46;10.60;99.90
17348;DHT22;8791;50.876;4.342;2022-11-23T12:04:20;10.60;99.90
17348;DHT22;8791;50.876;4.342;2022-11-23T12:06:52;10.70;99.90
17348;DHT22;8791;50.876;4.342;2022-11-23T12:09:23;10.50;99.90
17348;DHT22;8791;50.876;4.342;2022-11-23T12:11:52;10.50;99.90
17348;DHT22;8791;50.876;4.342;2022-11-23T12:14:19;10.50;99.90
17348;DHT22;8791;50.876;4.342;2022-11-23T12:16:52;10.50;99.90
17348;DHT22;8791;50.876;4.342;2022-11-23T12:19:28;10.60;99.90
17348;DHT22;8791;50.876;4.342;2022-11-23T12:22:16;10.70;99.90
17348;DHT22;8791;50.876;4.342;2022-11-23T12:25:15;10.60;99.90
17348;DHT22;8791;50.876;4.342;2022-11-23T12:27:56;10.50;99.90
17348;DHT22;8791;50.876;4.342;2022-11-23T12:30:28;10.30;99.90
17348;DHT22;8791;50.876;4.342;2022-11-23T12:33:20;10.20;99.90
17348;DHT22;8791;50.876;4.342;2022-11-23T12:36:02;10.30;99.90
17348;DHT22;8791;50.876;4.342;2022-11-23T12:38:39;10.10;99.90
17348;DHT22;8791;50.876;4.342;2022-11-23T12:41:33;10.00;99.90
17348;DHT22;8791;50.876;4.342;2022-11-23T12:44:28;10.00;99.90
17348;DHT22;8791;50.876;4.342;2022-11-23T12:47:07;10.00;99.90
17348;DHT22;8791;50.876;4.342;2022-11-23T12:49:40;10.00;99.90
17348;DHT22;8791;50.876;4.342;2022-11-23T12:52:30;9.90;99.90
17348;DHT22;8791;50.876;4.342;2022-11-23T12:55:06;10.00;99.90
17348;DHT22;8791;50.876;4.342;2022-11-23T12:57:38;10.00;99.90
17348;DHT22;8791;50.876;4.342;2022-11-23T13:00:16;10.00;99.90
17348;DHT22;8791;50.876;4.342;2022-11-23T13:03:17;9.90;99.90
17348;DHT22;8791;50.876;4.342;2022-11-23T13:06:05;9.70;99.90
17348;DHT22;8791;50.876;4.342;2022-11-23T13:11:46;9.70;99.90
17348;DHT22;8791;50.876;4.342;2022-11-23T13:14:29;9.60;99.90
17348;DHT22;8791;50.876;4.342;2022-11-23T13:17:16;9.50;99.90
17348;DHT22;8791;50.876;4.342;2022-11-23T13:20:02;9.60;99.90
17348;DHT22;8791;50.876;4.342;2022-11-23T13:22:32;9.60;99.90
17348;DHT22;8791;50.876;4.342;2022-11-23T13:25:13;9.50;99.90
17348;DHT22;8791;50.876;4.342;2022-11-23T13:27:42;9.50;99.90
17348;DHT22;8791;50.876;4.342;2022-11-23T13:30:22;9.40;99.90
17348;DHT22;8791;50.876;4.342;2022-11-23T13:32:58;9.30;99.90
17348;DHT22;8791;50.876;4.342;2022-11-23T13:35:54;9.20;99.90
17348;DHT22;8791;50.876;4.342;2022-11-23T13:38:26;9.20;99.90
17348;DHT22;8791;50.876;4.342;2022-11-23T13:40:54;9.30;99.90
17348;DHT22;8791;50.876;4.342;2022-11-23T13:43:24;9.30;99.90
17348;DHT22;8791;50.876;4.342;2022-11-23T13:46:19;9.30;99.90
17348;DHT22;8791;50.876;4.342;2022-11-23T13:48:48;9.30;99.90
17348;DHT22;8791;50.876;4.342;2022-11-23T13:51:22;9.30;99.90
17348;DHT22;8791;50.876;4.342;2022-11-23T13:53:53;9.20;99.90
17348;DHT22;8791;50.876;4.342;2022-11-23T13:56:24;9.20;99.90
17348;DHT22;8791;50.876;4.342;2022-11-23T13:58:54;9.10;99.90
17348;DHT22;8791;50.876;4.342;2022-11-23T14:04:27;9.10;99.90
17348;DHT22;8791;50.876;4.342;2022-11-23T14:06:57;9.10;99.90
17348;DHT22;8791;50.876;4.342;2022-11-23T14:09:31;9.00;99.90
17348;DHT22;8791;50.876;4.342;2022-11-23T14:12:13;9.10;99.90
17348;DHT22;8791;50.876;4.342;2022-11-23T14:14:48;9.20;99.90
17348;DHT22;8791;50.876;4.342;2022-11-23T14:20:31;9.00;99.90
17348;DHT22;8791;50.876;4.342;2022-11-23T14:23:18;9.00;99.90
17348;DHT22;8791;50.876;4.342;2022-11-23T14:25:55;9.00;99.90
17348;DHT22;8791;50.876;4.342;2022-11-23T14:28:37;9.10;99.90
17348;DHT22;8791;50.876;4.342;2022-11-23T14:31:13;9.00;99.90
17348;DHT22;8791;50.876;4.342;2022-11-23T14:33:46;8.90;99.90
17348;DHT22;8791;50.876;4.342;2022-11-23T14:36:26;8.90;99.90
17348;DHT22;8791;50.876;4.342;2022-11-23T14:39:17;8.90;99.90
17348;DHT22;8791;50.876;4.342;2022-11-23T14:41:53;9.00;99.90
17348;DHT22;8791;50.876;4.342;2022-11-23T14:44:25;9.00;99.90
17348;DHT22;8791;50.876;4.342;2022-11-23T14:46:59;9.00;99.90
17348;DHT22;8791;50.876;4.342;2022-11-23T14:49:26;9.00;99.90
17348;DHT22;8791;50.876;4.342;2022-11-23T14:51:55;9.10;99.90
17348;DHT22;8791;50.876;4.342;2022-11-23T14:54:22;9.10;99.90
17348;DHT22;8791;50.876;4.342;2022-11-23T14:56:50;9.20;99.90
17348;DHT22;8791;50.876;4.342;2022-11-23T14:59:21;9.20;99.90
17348;DHT22;8791;50.876;4.342;2022-11-23T15:01:51;9.20;99.90
17348;DHT22;8791;50.876;4.342;2022-11-23T15:04:24;9.20;99.90
17348;DHT22;8791;50.876;4.342;2022-11-23T15:06:56;9.20;99.90
17348;DHT22;8791;50.876;4.342;2022-11-23T15:09:35;9.20;99.90
17348;DHT22;8791;50.876;4.342;2022-11-23T15:12:05;9.20;99.90
17348;DHT22;8791;50.876;4.342;2022-11-23T15:14:32;9.20;99.90
17348;DHT22;8791;50.876;4.342;2022-11-23T15:17:12;9.30;99.90
17348;DHT22;8791;50.876;4.342;2022-11-23T15:19:39;9.40;99.90
17348;DHT22;8791;50.876;4.342;2022-11-23T15:22:13;9.50;99.90
17348;DHT22;8791;50.876;4.342;2022-11-23T15:24:43;9.50;99.90
17348;DHT22;8791;50.876;4.342;2022-11-23T15:27:15;9.40;99.90
17348;DHT22;8791;50.876;4.342;2022-11-23T15:29:51;9.60;99.90
17348;DHT22;8791;50.876;4.342;2022-11-23T15:32:22;9.50;99.90
17348;DHT22;8791;50.876;4.342;2022-11-23T15:34:50;9.50;99.90
17348;DHT22;8791;50.876;4.342;2022-11-23T15:37:20;9.50;99.90
17348;DHT22;8791;50.876;4.342;2022-11-23T15:39:47;9.50;99.90
17348;DHT22;8791;50.876;4.342;2022-11-23T15:42:17;9.40;99.90
17348;DHT22;8791;50.876;4.342;2022-11-23T15:44:44;9.40;99.90
17348;DHT22;8791;50.876;4.342;2022-11-23T15:47:15;9.30;99.90
17348;DHT22;8791;50.876;4.342;2022-11-23T15:49:45;9.20;99.90
17348;DHT22;8791;50.876;4.342;2022-11-23T15:52:14;9.20;99.90
17348;DHT22;8791;50.876;4.342;2022-11-23T15:54:43;9.10;99.90
17348;DHT22;8791;50.876;4.342;2022-11-23T15:57:14;9.10;99.90
17348;DHT22;8791;50.876;4.342;2022-11-23T15:59:44;9.10;99.90
17348;DHT22;8791;50.876;4.342;2022-11-23T16:02:14;9.30;99.90
17348;DHT22;8791;50.876;4.342;2022-11-23T16:04:43;9.30;99.90
17348;DHT22;8791;50.876;4.342;2022-11-23T16:07:18;9.20;99.90
17348;DHT22;8791;50.876;4.342;2022-11-23T16:09:48;9.10;99.90
17348;DHT22;8791;50.876;4.342;2022-11-23T16:12:26;9.00;99.90
17348;DHT22;8791;50.876;4.342;2022-11-23T16:14:55;8.80;99.90
17348;DHT22;8791;50.876;4.342;2022-11-23T16:17:23;8.80;99.90
17348;DHT22;8791;50.876;4.342;2022-11-23T16:19:52;8.80;99.90
17348;DHT22;8791;50.876;4.342;2022-11-23T16:22:23;8.80;99.90
17348;DHT22;8791;50.876;4.342;2022-11-23T16:24:58;8.80;99.90
17348;DHT22;8791;50.876;4.342;2022-11-23T16:27:26;8.80;99.90
17348;DHT22;8791;50.876;4.342;2022-11-23T16:29:53;8.70;99.90